Terminal Aerodrome Forecast
Issued by NWS

Home | Current Version | Previous Version | Text Only | Print | Product List | Glossary On
Versions: 1 2 3 4 5 6 7 8 9 10 11 12 13 14 15 16 17 18 19 20 21 22 23 24 25 26 27 28
000
FTUS45 KGJT 230529
TAFDRO
TAF
KDRO 230529Z 2306/2406 00000KT P6SM VCTS SCT090CB OVC110
      TEMPO 2306/2310 VRB10G15KT -SHRA BKN070 OVC090
     FM231000 03007KT P6SM VCSH SCT050 BKN080
     FM231400 10006KT P6SM VCSH SCT050 BKN070
     FM231800 21013KT P6SM VCTS SCT050CB OVC070
     FM232100 22013G22KT P6SM -SHRA VCTS SCT040CB BKN060
     FM240000 21009KT P6SM SCT040 BKN060=

USA.gov is the U.S. government's official web portal to all federal, state and local government web resources and services.